createdAt,value
2023-01-15T00:00:12.875Z,98291.91
2023-01-15T00:04:14.477Z,98292.19
2023-01-15T00:08:16.101Z,98286.69
2023-01-15T00:12:17.810Z,98286.94
2023-01-15T00:16:23.407Z,98278.69
2023-01-15T00:20:24.985Z,98279.22
2023-01-15T00:24:45.077Z,98258.84
2023-01-15T00:28:48.659Z,98252.28
2023-01-15T00:32:54.123Z,98239.53
2023-01-15T00:37:01.187Z,98230.50
2023-01-15T00:41:02.837Z,98232.38
2023-01-15T00:45:12.914Z,98221.66
2023-01-15T00:49:18.037Z,98222.47
2023-01-15T00:53:19.702Z,98213.13
2023-01-15T00:57:21.567Z,98217.53
2023-01-15T01:01:32.533Z,98202.94
2023-01-15T01:05:36.486Z,98198.00
2023-01-15T01:09:41.016Z,98192.44
2023-01-15T01:13:44.419Z,98204.53
2023-01-15T01:17:46.302Z,98208.09
2023-01-15T01:21:48.919Z,98213.31
2023-01-15T01:25:50.935Z,98217.16
2023-01-15T01:29:52.481Z,98217.72
2023-01-15T01:33:56.972Z,98215.78
2023-01-15T01:37:58.574Z,98208.94
2023-01-15T01:42:00.150Z,98226.25
2023-01-15T01:46:01.873Z,98238.38
2023-01-15T01:50:09.740Z,98228.50
2023-01-15T01:54:14.189Z,98225.78
2023-01-15T01:58:17.223Z,98228.53
2023-01-15T02:02:22.137Z,98226.59
2023-01-15T02:06:27.203Z,98240.09
2023-01-15T02:10:29.001Z,98240.91
2023-01-15T02:14:43.941Z,98241.19
2023-01-15T02:18:56.373Z,98267.06
2023-01-15T02:23:25.949Z,98265.47
2023-01-15T02:27:28.825Z,98274.06
2023-01-15T02:31:36.693Z,98290.66
2023-01-15T02:35:45.433Z,98289.84
2023-01-15T02:39:49.722Z,98297.06
2023-01-15T02:43:55.858Z,98302.06
2023-01-15T02:48:13.336Z,98301.25
2023-01-15T02:52:21.402Z,98292.19
2023-01-15T02:56:27.062Z,98307.88
2023-01-15T03:00:34.081Z,98308.97
2023-01-15T03:04:45.131Z,98316.38
2023-01-15T03:08:47.057Z,98324.94
2023-01-15T03:13:03.354Z,98346.94
2023-01-15T03:17:52.962Z,98348.34
2023-01-15T03:22:18.688Z,98353.84
2023-01-15T03:26:20.544Z,98347.00
2023-01-15T03:30:23.167Z,98353.84
2023-01-15T03:34:33.939Z,98349.16
2023-01-15T03:38:39.207Z,98346.38
2023-01-15T03:43:10.545Z,98359.75
2023-01-15T03:47:37.457Z,98367.44
2023-01-15T03:51:49.403Z,98364.69
2023-01-15T03:55:54.362Z,98388.28
2023-01-15T04:00:01.246Z,98372.09
2023-01-15T04:04:06.628Z,98363.88
2023-01-15T04:08:12.744Z,98373.50
2023-01-15T04:12:14.845Z,98373.50
2023-01-15T04:16:28.978Z,98380.59
2023-01-15T04:20:30.526Z,98388.53
2023-01-15T04:24:32.739Z,98397.59
2023-01-15T04:28:34.476Z,98410.13
2023-01-15T04:32:36.152Z,98402.44
2023-01-15T04:36:37.983Z,98419.44
2023-01-15T04:40:58.312Z,98421.31
2023-01-15T04:45:01.136Z,98420.47
2023-01-15T04:49:03.520Z,98423.97
2023-01-15T04:53:05.092Z,98429.13
2023-01-15T04:57:07.222Z,98438.41
2023-01-15T05:01:16.823Z,98464.09
2023-01-15T05:05:18.604Z,98466.47
2023-01-15T05:09:20.256Z,98453.56
2023-01-15T05:13:21.807Z,98449.44
2023-01-15T05:17:23.602Z,98461.69
2023-01-15T05:21:28.695Z,98460.78
2023-01-15T05:25:30.301Z,98451.69
2023-01-15T05:29:31.943Z,98457.94
2023-01-15T05:33:33.623Z,98475.38
2023-01-15T05:37:35.226Z,98470.09
2023-01-15T05:41:49.854Z,98472.47
2023-01-15T05:45:51.643Z,98502.50
2023-01-15T05:49:53.294Z,98498.88
2023-01-15T05:53:56.732Z,98496.88
2023-01-15T05:57:58.603Z,98498.72
2023-01-15T06:02:00.615Z,98507.94
2023-01-15T06:06:02.953Z,98514.25
2023-01-15T06:10:04.865Z,98495.44
2023-01-15T06:14:06.789Z,98498.84
2023-01-15T06:18:08.977Z,98496.06
2023-01-15T06:22:11.176Z,98495.66
2023-01-15T06:26:18.182Z,98499.16
2023-01-15T06:30:20.208Z,98500.25
2023-01-15T06:34:21.810Z,98530.84
2023-01-15T06:38:23.364Z,98540.38
2023-01-15T06:42:43.603Z,98540.38
2023-01-15T06:47:20.065Z,98553.22
2023-01-15T06:51:22.111Z,98548.31
2023-01-15T06:55:24.273Z,98540.38
2023-01-15T06:59:25.876Z,98555.28
2023-01-15T07:03:27.529Z,98565.91
2023-01-15T07:07:30.029Z,98564.25
2023-01-15T07:11:31.929Z,98572.47
2023-01-15T07:15:34.981Z,98568.63
2023-01-15T07:19:36.942Z,98584.81
2023-01-15T07:23:38.491Z,98595.75
2023-01-15T07:27:41.182Z,98610.78
2023-01-15T07:31:43.199Z,98601.34
2023-01-15T07:35:44.786Z,98617.53
2023-01-15T07:39:46.438Z,98626.78
2023-01-15T07:44:06.788Z,98637.19
2023-01-15T07:48:29.260Z,98628.38
2023-01-15T07:52:30.859Z,98632.19
2023-01-15T07:56:32.452Z,98644.28
2023-01-15T08:00:34.087Z,98645.69
2023-01-15T08:04:35.871Z,98641.69
2023-01-15T08:08:37.565Z,98653.81
2023-01-15T08:12:58.475Z,98641.88
2023-01-15T08:17:00.109Z,98652.31
2023-01-15T08:21:01.659Z,98658.94
2023-01-15T08:25:03.406Z,98661.44
2023-01-15T08:29:05.057Z,98652.38
2023-01-15T08:33:06.646Z,98669.38
2023-01-15T08:37:09.888Z,98681.16
2023-01-15T08:41:11.484Z,98686.56
2023-01-15T08:45:13.072Z,98685.97
2023-01-15T08:49:15.575Z,98697.16
2023-01-15T08:53:19.296Z,98700.25
2023-01-15T08:57:20.889Z,98707.84
2023-01-15T09:01:22.574Z,98715.56
2023-01-15T09:05:24.215Z,98723.03
2023-01-15T09:09:25.999Z,98724.69
2023-01-15T09:13:29.672Z,98737.88
2023-01-15T09:17:33.052Z,98733.41
2023-01-15T09:21:34.905Z,98733.91
2023-01-15T09:25:36.536Z,98751.38
2023-01-15T09:29:38.104Z,98757.94
2023-01-15T09:33:39.748Z,98737.03
2023-01-15T09:37:41.449Z,98752.84
2023-01-15T09:42:10.432Z,98753.13
2023-01-15T09:46:25.455Z,98765.72
2023-01-15T09:50:36.049Z,98791.53
2023-01-15T09:54:51.971Z,98793.16
2023-01-15T09:58:56.408Z,98794.25
2023-01-15T10:03:05.547Z,98792.84
2023-01-15T10:07:23.046Z,98808.16
2023-01-15T10:11:59.626Z,98808.50
2023-01-15T10:16:01.639Z,98821.44
2023-01-15T10:20:03.658Z,98837.03
2023-01-15T10:24:14.473Z,98839.53
2023-01-15T10:28:23.864Z,98844.41
2023-01-15T10:33:03.424Z,98843.34
2023-01-15T10:37:23.742Z,98839.69
2023-01-15T10:41:39.296Z,98847.44
2023-01-15T10:45:47.467Z,98854.25
2023-01-15T10:49:49.377Z,98852.03
2023-01-15T10:54:00.494Z,98853.59
2023-01-15T10:58:20.450Z,98856.59
2023-01-15T11:02:45.518Z,98847.34
2023-01-15T11:06:47.252Z,98842.00
2023-01-15T11:10:48.903Z,98838.59
2023-01-15T11:15:08.999Z,98830.16
2023-01-15T11:19:37.728Z,98837.50
2023-01-15T11:23:39.559Z,98838.47
2023-01-15T11:27:41.369Z,98836.94
2023-01-15T11:31:42.995Z,98848.34
2023-01-15T11:35:58.251Z,98843.38
2023-01-15T11:40:07.953Z,98855.25
2023-01-15T11:44:28.780Z,98853.81
2023-01-15T11:48:49.265Z,98858.56
2023-01-15T11:52:55.668Z,98844.69
2023-01-15T11:57:00.358Z,98854.56
2023-01-15T12:01:02.343Z,98854.91
2023-01-15T12:05:05.894Z,98848.91
2023-01-15T12:09:35.282Z,98842.66
2023-01-15T12:13:52.560Z,98840.28
2023-01-15T12:18:26.624Z,98835.72
2023-01-15T12:22:59.353Z,98829.09
2023-01-15T12:27:09.463Z,98846.88
2023-01-15T12:31:17.149Z,98823.59
2023-01-15T12:35:30.039Z,98827.22
2023-01-15T12:39:49.503Z,98823.41
2023-01-15T12:44:16.515Z,98821.91
2023-01-15T12:48:43.469Z,98816.22
2023-01-15T12:52:49.793Z,98801.88
2023-01-15T12:57:15.002Z,98795.97
2023-01-15T13:01:26.733Z,98798.38
2023-01-15T13:05:37.625Z,98802.13
2023-01-15T13:09:54.004Z,98818.53
2023-01-15T13:13:58.682Z,98822.09
2023-01-15T13:18:06.858Z,98837.72
2023-01-15T13:22:17.376Z,98851.75
2023-01-15T13:26:25.052Z,98856.53
2023-01-15T13:30:41.572Z,98857.88
2023-01-15T13:34:50.317Z,98849.38
2023-01-15T13:38:55.701Z,98856.81
2023-01-15T13:42:57.447Z,98851.44
2023-01-15T13:47:13.378Z,98856.88
2023-01-15T13:51:27.362Z,98865.75
2023-01-15T13:55:42.529Z,98869.44
2023-01-15T13:59:44.763Z,98854.09
2023-01-15T14:03:58.254Z,98857.28
2023-01-15T14:08:01.844Z,98856.47
2023-01-15T14:12:37.662Z,98854.28
2023-01-15T14:17:02.634Z,98845.66
2023-01-15T14:21:19.284Z,98849.72
2023-01-15T14:25:31.385Z,98846.34
2023-01-15T14:29:54.737Z,98854.13
2023-01-15T14:33:59.338Z,98854.41
2023-01-15T14:38:14.538Z,98856.25
2023-01-15T14:42:41.939Z,98863.09
2023-01-15T14:46:43.776Z,98866.66
2023-01-15T14:50:46.363Z,98877.22
2023-01-15T14:54:48.679Z,98885.44
2023-01-15T14:58:53.521Z,98876.72
2023-01-15T15:02:55.698Z,98884.84
2023-01-15T15:07:01.849Z,98891.97
2023-01-15T15:11:26.255Z,98904.63
2023-01-15T15:15:35.106Z,98895.00
2023-01-15T15:19:47.488Z,98905.13
2023-01-15T15:24:23.173Z,98910.09
2023-01-15T15:28:25.149Z,98917.09
2023-01-15T15:32:28.116Z,98931.19
2023-01-15T15:36:33.247Z,98925.13
2023-01-15T15:40:36.519Z,98936.50
2023-01-15T15:45:05.533Z,98923.16
2023-01-15T15:49:07.801Z,98924.47
2023-01-15T15:53:17.608Z,98929.13
2023-01-15T15:57:20.424Z,98927.22
2023-01-15T16:01:22.272Z,98917.66
2023-01-15T16:05:31.760Z,98918.72
2023-01-15T16:09:33.582Z,98910.19
2023-01-15T16:13:46.237Z,98911.78
2023-01-15T16:17:49.631Z,98905.31
2023-01-15T16:21:51.987Z,98917.31
2023-01-15T16:26:00.886Z,98942.81
2023-01-15T16:34:24.142Z,98916.91
2023-01-15T16:38:26.393Z,98925.22
2023-01-15T16:42:35.867Z,98940.47
2023-01-15T16:46:50.152Z,98932.66
2023-01-15T16:50:52.431Z,98938.25
2023-01-15T16:54:55.884Z,98917.97
2023-01-15T16:58:57.603Z,98916.28
2023-01-15T17:02:59.212Z,98918.81
2023-01-15T17:07:05.434Z,98925.69
2023-01-15T17:11:21.429Z,98913.94
2023-01-15T17:15:25.885Z,98927.34
2023-01-15T17:19:27.521Z,98933.16
2023-01-15T17:23:35.109Z,98926.06
2023-01-15T17:27:36.746Z,98923.31
2023-01-15T17:31:39.219Z,98914.03
2023-01-15T17:35:43.590Z,98910.63
2023-01-15T17:39:45.124Z,98895.16
2023-01-15T17:43:48.893Z,98892.56
2023-01-15T17:47:50.858Z,98891.13
2023-01-15T17:51:52.435Z,98878.13
2023-01-15T17:56:12.921Z,98893.44
2023-01-15T18:00:33.635Z,98895.13
2023-01-15T18:05:05.995Z,98880.50
2023-01-15T18:09:08.158Z,98881.31
2023-01-15T18:17:36.017Z,98887.75
2023-01-15T18:21:41.790Z,98876.31
2023-01-15T18:25:47.433Z,98869.19
2023-01-15T18:29:49.278Z,98869.91
2023-01-15T18:33:50.856Z,98857.41
2023-01-15T18:37:52.596Z,98860.88
2023-01-15T18:41:54.211Z,98857.81
2023-01-15T18:46:34.000Z,98854.81
2023-01-15T18:50:35.716Z,98844.00
2023-01-15T18:54:38.620Z,98845.66
2023-01-15T18:58:42.127Z,98832.91
2023-01-15T19:02:45.795Z,98836.00
2023-01-15T19:06:52.286Z,98831.63
2023-01-15T19:10:54.259Z,98836.88
2023-01-15T19:15:14.981Z,98822.94
2023-01-15T19:19:17.779Z,98825.19
2023-01-15T19:23:20.839Z,98831.09
2023-01-15T19:27:27.291Z,98839.13
2023-01-15T19:31:39.427Z,98829.88
2023-01-15T19:35:41.246Z,98829.94
2023-01-15T19:39:44.343Z,98832.19
2023-01-15T19:44:04.798Z,98830.22
2023-01-15T19:48:30.872Z,98827.72
2023-01-15T19:52:35.480Z,98822.94
2023-01-15T19:56:37.239Z,98816.53
2023-01-15T20:00:40.310Z,98817.94
2023-01-15T20:04:45.636Z,98801.53
2023-01-15T20:08:47.321Z,98785.25
2023-01-15T20:13:09.302Z,98785.75
2023-01-15T20:17:11.419Z,98777.59
2023-01-15T20:25:53.252Z,98765.13
2023-01-15T20:30:13.762Z,98758.72
2023-01-15T20:34:15.349Z,98753.00
2023-01-15T20:38:18.985Z,98745.88
2023-01-15T20:42:39.498Z,98741.50
2023-01-15T20:46:41.242Z,98746.25
2023-01-15T20:51:01.739Z,98735.19
2023-01-15T20:59:48.991Z,98717.25
2023-01-15T21:03:50.677Z,98706.44
2023-01-15T21:07:52.987Z,98691.44
2023-01-15T21:11:55.224Z,98692.34
2023-01-15T21:16:00.183Z,98679.84
2023-01-15T21:20:01.804Z,98665.09
2023-01-15T21:24:03.638Z,98648.84
2023-01-15T21:28:05.327Z,98642.06
2023-01-15T21:32:14.163Z,98646.69
2023-01-15T21:36:16.411Z,98633.75
2023-01-15T21:40:18.369Z,98637.31
2023-01-15T21:44:40.230Z,98632.13
2023-01-15T21:48:41.838Z,98636.19
2023-01-15T21:52:43.572Z,98643.94
2023-01-15T21:56:45.553Z,98635.09
2023-01-15T22:00:49.027Z,98630.25
2023-01-15T22:04:51.188Z,98621.00
2023-01-15T22:08:56.521Z,98621.00
2023-01-15T22:12:58.124Z,98616.03
2023-01-15T22:17:01.922Z,98613.84
2023-01-15T22:21:06.338Z,98606.22
2023-01-15T22:25:11.702Z,98596.69
2023-01-15T22:29:13.395Z,98575.75
2023-01-15T22:33:15.928Z,98576.06
2023-01-15T22:37:17.668Z,98576.06
2023-01-15T22:41:39.684Z,98571.28
2023-01-15T22:45:41.284Z,98569.28
2023-01-15T22:49:42.843Z,98562.56
2023-01-15T22:53:44.494Z,98545.00
2023-01-15T22:57:47.736Z,98540.78
2023-01-15T23:01:49.482Z,98540.22
2023-01-15T23:05:51.980Z,98516.16
2023-01-15T23:09:53.536Z,98517.56
2023-01-15T23:13:55.991Z,98511.59
2023-01-15T23:17:57.549Z,98509.56
2023-01-15T23:22:00.607Z,98489.94
2023-01-15T23:26:03.686Z,98479.81
2023-01-15T23:30:06.375Z,98466.97
2023-01-15T23:34:08.356Z,98457.94
2023-01-15T23:38:10.175Z,98460.59
2023-01-15T23:42:30.538Z,98454.78
2023-01-15T23:46:37.244Z,98441.22
2023-01-15T23:50:38.911Z,98430.88
2023-01-15T23:54:40.464Z,98425.09
2023-01-15T23:58:42.448Z,98430.28
